Flight Track Log - Related Links

Times and Time Zones

All times are in EDT time to prevent confusion due to time zone crossing. See the SWA1275 flight status page for this flight to view local times or setup timezone preferences in your user account.

Time Position Orientation Groundspeed Altitude Reporting Facility
EDT Latitude Longitude Course Direction KTS MPH feet Rate Location/Type
Thu 07:33:49 AM 42.9620 -71.4180 21° North 173 199 2,000  Level FlightAware ADS-B
Thu 07:34:19 AM 42.9880 -71.4040 21° North 221 254 3,000 1,950 Climbing FlightAware ADS-B
Thu 07:34:29 AM 42.9980 -71.3980 24° Northeast 229 264 3,300 2,429 Climbing FlightAware ADS-B
Thu 07:35:01 AM 43.0210 -71.3590 51° Northeast 267 307 4,700 2,900 Climbing FlightAware ADS-B
Thu 07:35:29 AM 43.0300 -71.3110 76° East 287 330 6,200 3,414 Climbing FlightAware ADS-B
Thu 07:35:59 AM 43.0380 -71.2550 79° East 304 350 8,000 3,828 Climbing FlightAware ADS-B
Thu 07:36:27 AM 43.0460 -71.2030 78° East 310 357 9,900 3,000 Climbing FlightAware ADS-B
Thu 07:37:07 AM 43.0590 -71.1210 78° East 359 413 11,400 2,154 Climbing FlightAware ADS-B
Thu 07:37:45 AM 43.0750 -71.0350 76° East 380 437 12,700 2,545 Climbing FlightAware ADS-B
Thu 07:38:13 AM 43.0650 -70.9730 102° East 378 435 14,200 3,353 Climbing FlightAware ADS-B
Thu 07:38:53 AM 43.0140 -70.9080 137° Southeast 370 426 16,500 3,182 Climbing FlightAware ADS-B
Thu 07:39:19 AM 42.9740 -70.8930 165° South 367 422 17,700 2,710 Climbing FlightAware ADS-B
Thu 07:39:55 AM 42.9110 -70.9160 195° South 377 434 19,300 2,692 Climbing FlightAware ADS-B
Thu 07:40:37 AM 42.8420 -70.9500 200° South 388 447 21,200 2,930 Climbing FlightAware ADS-B
Thu 07:41:21 AM 42.7680 -70.9870 200° South 385 443 23,500 2,864 Climbing FlightAware ADS-B
Thu 07:42:05 AM 42.6940 -71.0220 199° South 385 443 25,400 2,462 Climbing FlightAware ADS-B
Thu 07:42:39 AM 42.6360 -71.0510 200° South 390 449 26,700 2,083 Climbing FlightAware ADS-B
Thu 07:43:17 AM 42.5720 -71.0820 200° South 391 450 27,900 929 Climbing FlightAware ADS-B
Thu 07:44:03 AM 42.4930 -71.1200 200° South 392 451 28,000 69 Climbing FlightAware ADS-B
Thu 07:44:44 AM 42.4270 -71.1610 205° Southwest 389 448 28,000  Level FlightAware ADS-B
Thu 07:44:59 AM 42.4080 -71.1900 228° Southwest 392 451 28,000  Level FlightAware ADS-B
Thu 07:45:43 AM 42.3770 -71.2910 247° West 397 457 28,000  Level FlightAware ADS-B
Thu 07:46:24 AM 42.3490 -71.3820 247° West 402 463 28,000  Level FlightAware ADS-B
Thu 07:47:06 AM 42.3180 -71.4840 248° West 404 465 28,000 532 Level FlightAware ADS-B
Thu 07:47:43 AM 42.2920 -71.5680 247° West 403 464 28,700 1,923 Climbing FlightAware ADS-B
Thu 07:48:24 AM 42.2630 -71.6620 247° West 388 447 30,500 2,386 Climbing FlightAware ADS-B
Thu 07:49:06 AM 42.2350 -71.7530 247° West 381 438 32,000 2,217 Climbing FlightAware ADS-B
Thu 07:49:56 AM 42.2020 -71.8610 248° West 366 421 33,900 1,165 Climbing FlightAware ADS-B
Thu 07:50:49 AM 42.1670 -71.9720 247° West 363 418 34,000 65 Climbing FlightAware ADS-B
Thu 07:51:29 AM 42.1340 -72.0490 240° Southwest 361 415 34,000  Level FlightAware ADS-B
Thu 07:52:16 AM 42.0870 -72.1340 233° Southwest 362 417 34,000  Level FlightAware ADS-B
Thu 07:52:54 AM 42.0540 -72.1960 234° Southwest 363 418 34,000  Level FlightAware ADS-B
Thu 07:53:51 AM 41.9950 -72.3040 234° Southwest 360 414 34,000  Level FlightAware ADS-B
Thu 07:54:35 AM 41.9510 -72.3830 233° Southwest 362 417 34,000  Level FlightAware ADS-B
Thu 07:55:26 AM 41.9040 -72.4710 234° Southwest 363 418 34,000  Level FlightAware ADS-B
Thu 07:56:14 AM 41.8490 -72.5690 233° Southwest 363 418 34,000  Level FlightAware ADS-B
Thu 07:57:03 AM 41.8080 -72.6450 234° Southwest 363 418 34,000  Level FlightAware ADS-B
Thu 07:57:51 AM 41.7560 -72.7370 233° Southwest 363 418 34,000  Level FlightAware ADS-B
Thu 07:59:19 AM 41.6640 -72.9010 233° Southwest 34,000  Level FlightAware ADS-B
Thu 08:00:16 AM 41.6010 -73.0140 233° Southwest 371 427 34,000  Level FlightAware ADS-B
Thu 08:00:56 AM 41.5590 -73.0890 233° Southwest 372 428 34,000  Level FlightAware ADS-B
Thu 08:01:41 AM 41.5150 -73.1670 233° Southwest 375 432 34,000  Level FlightAware ADS-B
Thu 08:02:34 AM 41.4570 -73.2690 233° Southwest 377 434 34,000  Level FlightAware ADS-B
Thu 08:03:14 AM 41.4160 -73.3420 233° Southwest 380 437 34,000  Level FlightAware ADS-B
Thu 08:04:02 AM 41.3670 -73.4300 233° Southwest 379 436 34,000  Level FlightAware ADS-B
Thu 08:04:42 AM 41.3230 -73.5070 233° Southwest 378 435 34,000  Level FlightAware ADS-B
Thu 08:05:25 AM 41.2780 -73.5850 233° Southwest 379 436 34,000  Level FlightAware ADS-B
Thu 08:06:05 AM 41.2340 -73.6590 232° Southwest 378 435 34,000  Level FlightAware ADS-B
Thu 08:06:47 AM 41.1910 -73.7320 232° Southwest 378 435 34,000  Level FlightAware ADS-B
Thu 08:07:30 AM 41.1420 -73.8140 232° Southwest 378 435 34,000  Level FlightAware ADS-B
Thu 08:08:14 AM 41.0960 -73.8930 232° Southwest 380 437 34,000  Level FlightAware ADS-B
Thu 08:08:54 AM 41.0510 -73.9680 232° Southwest 380 437 34,000  Level FlightAware ADS-B
Thu 08:09:35 AM 41.0090 -74.0380 232° Southwest 381 438 34,000 -361 Level FlightAware ADS-B
Thu 08:10:17 AM 40.9610 -74.1170 231° Southwest 373 429 33,500 -1,342 Descending FlightAware ADS-B
Thu 08:10:51 AM 40.9250 -74.1780 232° Southwest 365 420 32,300 -2,080 Descending FlightAware ADS-B
Thu 08:11:32 AM 40.8820 -74.2500 232° Southwest 357 411 30,900 -2,071 Descending FlightAware ADS-B
Thu 08:12:15 AM 40.8390 -74.3210 231° Southwest 350 403 29,400 -2,000 Descending FlightAware ADS-B
Thu 08:12:53 AM 40.8010 -74.3830 231° Southwest 345 397 28,200 -1,063 Descending FlightAware ADS-B
Thu 08:13:34 AM 40.7600 -74.4500 231° Southwest 353 406 28,000 -148 Descending FlightAware ADS-B
Thu 08:14:14 AM 40.7180 -74.5200 232° Southwest 369 425 28,000  Level FlightAware ADS-B
Thu 08:14:58 AM 40.6700 -74.5990 231° Southwest 369 425 28,000  Level FlightAware ADS-B
Thu 08:15:26 AM 40.6400 -74.6480 231° Southwest 369 425 28,000  Level FlightAware ADS-B
Thu 08:16:07 AM 40.5970 -74.7180 231° Southwest 370 426 28,000  Level FlightAware ADS-B
Thu 08:16:33 AM 40.5680 -74.7630 230° Southwest 370 426 28,000  Level FlightAware ADS-B
Thu 08:17:18 AM 40.5160 -74.8370 227° Southwest 372 428 28,000 -202 Level FlightAware ADS-B
Thu 08:18:02 AM 40.4650 -74.9090 227° Southwest 358 412 27,700 -1,059 Descending FlightAware ADS-B
Thu 08:18:43 AM 40.4200 -74.9720 227° Southwest 342 394 26,500 -1,852 Descending FlightAware ADS-B
Thu 08:19:23 AM 40.3770 -75.0330 227° Southwest 336 387 25,200 -1,929 Descending FlightAware ADS-B
Thu 08:20:07 AM 40.3310 -75.0970 227° Southwest 328 377 23,800 -1,909 Descending FlightAware ADS-B
Thu 08:20:51 AM 40.2850 -75.1610 227° Southwest 323 372 22,400 -1,835 Descending FlightAware ADS-B
Thu 08:21:32 AM 40.2440 -75.2190 227° Southwest 319 367 21,200 -1,792 Descending FlightAware ADS-B
Thu 08:22:08 AM 40.2080 -75.2690 227° Southwest 313 360 20,100 -1,835 Descending FlightAware ADS-B
Thu 08:22:57 AM 40.1590 -75.3370 227° Southwest 307 353 18,600 -1,432 Descending FlightAware ADS-B
Thu 08:23:36 AM 40.1210 -75.3900 227° Southwest 321 369 18,000 -450 Descending FlightAware ADS-B
Thu 08:24:17 AM 40.0790 -75.4490 227° Southwest 337 388 18,000  Level FlightAware ADS-B
Thu 08:24:57 AM 40.0370 -75.5070 227° Southwest 336 387 18,000  Level FlightAware ADS-B
Thu 08:25:35 AM 39.9950 -75.5640 226° Southwest 337 388 18,000 -395 Level FlightAware ADS-B
Thu 08:26:13 AM 39.9590 -75.6140 227° Southwest 321 369 17,500 -935 Descending FlightAware ADS-B
Thu 08:26:52 AM 39.9170 -75.6740 228° Southwest 319 367 16,800 -1,071 Descending FlightAware ADS-B
Thu 08:27:37 AM 39.8790 -75.7460 235° Southwest 323 372 16,000 -1,000 Descending FlightAware ADS-B
Thu 08:28:16 AM 39.8470 -75.8070 236° Southwest 319 367 15,400 -963 Descending FlightAware ADS-B
Thu 08:28:58 AM 39.8110 -75.8760 236° Southwest 319 367 14,700 -1,047 Descending FlightAware ADS-B
Thu 08:29:42 AM 39.7750 -75.9460 236° Southwest 318 366 13,900 -1,000 Descending FlightAware ADS-B
Thu 08:30:34 AM 39.7320 -76.0270 235° Southwest 316 364 13,100 -1,000 Descending FlightAware ADS-B
Thu 08:31:42 AM 39.6790 -76.1280 236° Southwest 293 337 11,900 -722 Descending FlightAware ADS-B
Thu 08:32:22 AM 39.6480 -76.1860 235° Southwest 293 337 11,800 -600 Descending FlightAware ADS-B
Thu 08:33:02 AM 39.6170 -76.2440 235° Southwest 292 336 11,100 -1,098 Descending FlightAware ADS-B
Thu 08:33:44 AM 39.5830 -76.3030 233° Southwest 289 333 10,300 -1,083 Descending FlightAware ADS-B
Thu 08:34:14 AM 39.5510 -76.3320 215° Southwest 281 323 9,800 -1,000 Descending FlightAware ADS-B
Thu 08:34:38 AM 39.5240 -76.3560 214° Southwest 278 320 9,400 -1,111 Descending FlightAware ADS-B
Thu 08:35:08 AM 39.4960 -76.3800 213° Southwest 274 315 8,800 -1,400 Descending FlightAware ADS-B
Thu 08:35:38 AM 39.4610 -76.4100 213° Southwest 274 315 8,000 -1,636 Descending FlightAware ADS-B
Thu 08:36:03 AM 39.4360 -76.4330 215° Southwest 273 314 7,300 -1,909 Descending FlightAware ADS-B
Thu 08:36:44 AM 39.3860 -76.4370 184° South 282 325 5,900 -2,073 Descending FlightAware ADS-B
Thu 08:36:58 AM 39.3650 -76.4300 166° South 279 321 5,400 -1,571 Descending FlightAware ADS-B
Thu 08:37:26 AM 39.3330 -76.4200 166° South 265 305 4,800 -1,300 Descending FlightAware ADS-B
Thu 08:37:58 AM 39.2940 -76.4110 170° South 263 303 4,100 -1,429 Descending FlightAware ADS-B
Thu 08:38:08 AM 39.2800 -76.4100 177° South 260 299 3,800 -1,350 Descending FlightAware ADS-B
Thu 08:38:38 AM 39.2470 -76.4090 179° South 257 296 3,200 -889 Descending FlightAware ADS-B
Thu 08:39:02 AM 39.2210 -76.4090 180° South 255 293 3,000 -180 Descending FlightAware ADS-B
Thu 08:40:18 AM 39.1380 -76.4180 185° South 227 261 2,900 -310 Descending FlightAware ADS-B
Thu 08:44:50 AM 39.1200 -76.6210 264° West 141 162 1,200 -342 Descending FlightAware ADS-B
Thu 08:45:16 AM 39.1310 -76.6330 320° Northwest 141 162 1,200  Level FlightAware ADS-B

Login

Don't have an account? Register now (free) for customized features, flight alerts, and more!